Главная страница
METAR-TAF:

METAR-TAF

Аэропорты :

Ларнака, Кипр

широта: 34-53N, долгота: 033-38E, высота над уровнем моря: 2 м

Текущие метеонаблюдения

Эта сводка был подготовлена 26 минут назад, в 07:00 UTC
Ветер 8 Узел от южный, изменяющийся между юго-восточный и юго-западный
Температура 22°C
Влажность 50%
Давление 1015 hPa
Видимость 10 км и более
Нет облачности ниже 1500 м, и нет кучево-дождевой облачности

METAR: LCLK 230700Z 18008KT 140V220 CAVOK 22/11 Q1015 NOSIG

Время: 10:26 (07:26 UTC)

Прогноз

Эта сводка был подготовлена 1 час и 56 минут назад, в 05:30 UTC
Прогноз действительный с 23-го 06 UTC до 24-го 06 UTC
Ветер 9 Узел от юго-восточный
Видимость 10 км и более
небольшая облачность на высоте 2500 фута
изменения
С 23-го 09 UTC до 23-го 12 UTC
Ветер 16 Узел от юго-западный
изменения
С 23-го 18 UTC до 23-го 21 UTC
Ветер 6 Узел от северо-западный

TAF: LCLK 230530Z 2306/2406 14009KT 9999 FEW025 BECMG 2309/2312 22016KT BECMG 2318/2321 32006KT

Метеонаблюдения и прогнозы для более 4000 аэропортов (сводки METAR и TAF).

Имеющиеся станции представлены на карте желтыми и красными точками.

Чтобы увидеть название станции, наведите на нее мышь.

Затем щелкните, чтобы увидеть метеонаблюдения и метеопрогнозы.

Управление картой: чтобы увеличить масштаб, щелкните зеленые кнопки с черным крестиком; чтобы уменьшить масштаб, щелкните зеленую кнопку с тире; для просмотра соседних карт щелкайте зеленые стрелки.


METAR-TAF: